createdAt,value
2023-10-18T00:01:16.140Z,100914.86
2023-10-18T00:03:46.009Z,100912.11
2023-10-18T00:06:22.766Z,100913.00
2023-10-18T00:08:58.823Z,100913.99
2023-10-18T00:11:33.995Z,100908.08
2023-10-18T00:14:05.938Z,100900.62
2023-10-18T00:16:36.773Z,100899.49
2023-10-18T00:19:06.701Z,100891.86
2023-10-18T00:21:36.850Z,100884.45
2023-10-18T00:24:08.306Z,100892.53
2023-10-18T00:26:40.852Z,100893.85
2023-10-18T00:29:11.743Z,100891.84
2023-10-18T00:31:41.641Z,100889.21
2023-10-18T00:34:13.905Z,100884.44
2023-10-18T00:36:47.229Z,100882.73
2023-10-18T00:39:27.523Z,100883.20
2023-10-18T00:42:18.254Z,100885.30
2023-10-18T00:44:56.201Z,100877.65
2023-10-18T00:47:27.514Z,100874.43
2023-10-18T00:49:57.440Z,100872.15
2023-10-18T00:52:31.262Z,100867.27
2023-10-18T00:55:01.160Z,100868.27
2023-10-18T00:57:48.598Z,100864.29
2023-10-18T01:00:25.845Z,100855.77
2023-10-18T01:03:00.701Z,100847.84
2023-10-18T01:05:33.116Z,100837.73
2023-10-18T01:08:08.041Z,100831.85
2023-10-18T01:10:38.678Z,100831.73
2023-10-18T01:13:11.064Z,100835.55
2023-10-18T01:15:45.214Z,100828.27
2023-10-18T01:18:15.072Z,100830.39
2023-10-18T01:20:47.501Z,100836.65
2023-10-18T01:23:21.137Z,100820.14
2023-10-18T01:25:50.931Z,100826.13
2023-10-18T01:28:24.310Z,100824.77
2023-10-18T01:30:54.164Z,100822.27
2023-10-18T01:33:24.080Z,100821.91
2023-10-18T01:35:54.958Z,100814.77
2023-10-18T01:38:30.878Z,100811.60
2023-10-18T01:41:10.413Z,100810.09
2023-10-18T01:43:44.707Z,100806.89
2023-10-18T01:46:16.792Z,100791.41
2023-10-18T01:48:56.527Z,100794.91
2023-10-18T01:51:28.790Z,100793.88
2023-10-18T01:54:03.921Z,100789.35
2023-10-18T01:56:36.304Z,100787.48
2023-10-18T01:59:15.970Z,100779.42
2023-10-18T02:01:52.922Z,100771.21
2023-10-18T02:04:49.539Z,100766.54
2023-10-18T02:07:23.647Z,100764.71
2023-10-18T02:09:59.728Z,100764.04
2023-10-18T02:12:30.813Z,100762.09
2023-10-18T02:15:08.184Z,100756.67
2023-10-18T02:17:41.173Z,100755.43
2023-10-18T02:20:32.358Z,100752.62
2023-10-18T02:23:02.833Z,100747.94
2023-10-18T02:25:42.379Z,100749.50
2023-10-18T02:28:28.369Z,100746.27
2023-10-18T02:31:10.337Z,100747.72
2023-10-18T02:33:46.348Z,100744.71
2023-10-18T02:36:33.424Z,100742.16
2023-10-18T02:39:04.448Z,100737.41
2023-10-18T02:41:35.765Z,100731.81
2023-10-18T02:44:23.163Z,100726.73
2023-10-18T02:46:52.775Z,100723.69
2023-10-18T02:49:25.208Z,100720.09
2023-10-18T02:51:55.285Z,100709.66
2023-10-18T02:54:26.313Z,100705.54
2023-10-18T02:56:56.788Z,100702.65
2023-10-18T02:59:28.880Z,100705.03
2023-10-18T03:02:02.386Z,100703.34
2023-10-18T03:04:35.826Z,100701.30
2023-10-18T03:07:09.880Z,100680.06
2023-10-18T03:09:39.767Z,100686.83
2023-10-18T03:12:15.991Z,100689.98
2023-10-18T03:14:57.101Z,100687.10
2023-10-18T03:17:30.499Z,100678.89
2023-10-18T03:20:02.865Z,100675.83
2023-10-18T03:22:33.075Z,100675.42
2023-10-18T03:25:10.469Z,100669.80
2023-10-18T03:27:43.048Z,100661.29
2023-10-18T03:30:19.356Z,100656.52
2023-10-18T03:32:51.651Z,100652.49
2023-10-18T03:35:22.726Z,100642.90
2023-10-18T03:37:58.045Z,100634.67
2023-10-18T03:40:36.181Z,100644.98
2023-10-18T03:43:10.938Z,100646.39
2023-10-18T03:45:58.401Z,100642.20
2023-10-18T03:48:30.586Z,100640.74
2023-10-18T03:51:02.702Z,100637.05
2023-10-18T03:53:32.524Z,100632.90
2023-10-18T03:56:06.115Z,100626.69
2023-10-18T03:58:37.234Z,100624.43
2023-10-18T04:01:07.312Z,100628.52
2023-10-18T04:03:37.120Z,100627.27
2023-10-18T04:06:09.283Z,100625.45
2023-10-18T04:08:39.141Z,100620.35
2023-10-18T04:11:09.543Z,100622.52
2023-10-18T04:13:39.278Z,100614.75
2023-10-18T04:16:14.049Z,100608.35
2023-10-18T04:18:46.742Z,100607.14
2023-10-18T04:21:17.239Z,100601.83
2023-10-18T04:23:47.825Z,100598.87
2023-10-18T04:26:22.546Z,100590.42
2023-10-18T04:28:58.543Z,100590.70
2023-10-18T04:31:28.549Z,100586.73
2023-10-18T04:33:59.226Z,100585.27
2023-10-18T04:36:30.576Z,100584.27
2023-10-18T04:39:04.098Z,100581.70
2023-10-18T04:41:37.882Z,100573.55
2023-10-18T04:44:11.617Z,100567.08
2023-10-18T04:46:41.509Z,100562.88
2023-10-18T04:49:16.485Z,100557.96
2023-10-18T04:51:46.536Z,100547.01
2023-10-18T04:54:36.250Z,100540.57
2023-10-18T04:57:08.586Z,100538.39
2023-10-18T04:59:47.475Z,100532.87
2023-10-18T05:02:27.743Z,100527.86
2023-10-18T05:04:58.563Z,100519.98
2023-10-18T05:07:48.658Z,100517.81
2023-10-18T05:10:23.246Z,100521.23
2023-10-18T05:12:55.006Z,100503.98
2023-10-18T05:15:31.579Z,100512.54
2023-10-18T05:18:16.359Z,100505.28
2023-10-18T05:20:55.642Z,100503.63
2023-10-18T05:23:28.365Z,100499.70
2023-10-18T05:26:12.919Z,100502.11
2023-10-18T05:28:51.270Z,100498.98
2023-10-18T05:31:27.557Z,100494.92
2023-10-18T05:34:08.174Z,100494.60
2023-10-18T05:36:47.024Z,100495.29
2023-10-18T05:39:25.849Z,100489.03
2023-10-18T05:42:04.735Z,100482.15
2023-10-18T05:44:34.804Z,100480.42
2023-10-18T05:47:09.344Z,100480.19
2023-10-18T05:49:42.547Z,100483.84
2023-10-18T05:52:12.525Z,100478.80
2023-10-18T05:54:45.308Z,100475.26
2023-10-18T05:57:21.063Z,100471.90
2023-10-18T05:59:51.408Z,100466.37
2023-10-18T06:02:24.897Z,100463.19
2023-10-18T06:04:57.654Z,100454.31
2023-10-18T06:07:28.103Z,100451.98
2023-10-18T06:09:59.858Z,100451.34
2023-10-18T06:12:38.516Z,100452.48
2023-10-18T06:15:17.521Z,100453.09
2023-10-18T06:17:48.767Z,100446.92
2023-10-18T06:20:28.735Z,100445.65
2023-10-18T06:23:10.226Z,100439.05
2023-10-18T06:25:46.821Z,100434.42
2023-10-18T06:28:25.963Z,100437.08
2023-10-18T06:30:58.271Z,100439.65
2023-10-18T06:33:36.551Z,100441.06
2023-10-18T06:36:13.522Z,100441.79
2023-10-18T06:38:49.878Z,100449.52
2023-10-18T06:41:20.383Z,100450.84
2023-10-18T06:43:51.134Z,100445.11
2023-10-18T06:46:28.803Z,100446.77
2023-10-18T06:49:11.618Z,100439.69
2023-10-18T06:51:42.626Z,100441.26
2023-10-18T06:54:16.281Z,100437.61
2023-10-18T06:56:49.266Z,100437.15
2023-10-18T06:59:27.095Z,100435.65
2023-10-18T07:01:59.824Z,100433.19
2023-10-18T07:04:36.479Z,100430.40
2023-10-18T07:07:12.764Z,100430.02
2023-10-18T07:09:45.725Z,100414.06
2023-10-18T07:12:18.937Z,100420.77
2023-10-18T07:14:48.738Z,100420.23
2023-10-18T07:17:22.882Z,100415.13
2023-10-18T07:20:01.737Z,100424.39
2023-10-18T07:22:45.429Z,100427.30
2023-10-18T07:25:22.584Z,100421.79
2023-10-18T07:27:56.837Z,100413.89
2023-10-18T07:30:42.495Z,100411.89
2023-10-18T07:33:13.714Z,100411.14
2023-10-18T07:35:46.800Z,100407.04
2023-10-18T07:38:27.000Z,100401.66
2023-10-18T07:41:04.363Z,100394.85
2023-10-18T07:43:37.050Z,100384.21
2023-10-18T07:46:10.974Z,100379.53
2023-10-18T07:48:47.426Z,100373.84
2023-10-18T07:51:28.265Z,100370.92
2023-10-18T07:53:59.002Z,100366.32
2023-10-18T07:56:33.845Z,100363.89
2023-10-18T07:59:20.631Z,100355.57
2023-10-18T08:02:09.059Z,100352.42
2023-10-18T08:04:40.197Z,100344.34
2023-10-18T08:07:16.404Z,100332.09
2023-10-18T08:09:49.735Z,100326.48
2023-10-18T08:12:25.977Z,100327.20
2023-10-18T08:14:56.388Z,100324.92
2023-10-18T08:17:32.236Z,100318.98
2023-10-18T08:20:22.145Z,100319.89
2023-10-18T08:22:54.790Z,100315.09
2023-10-18T08:25:33.133Z,100310.68
2023-10-18T08:28:07.491Z,100309.48
2023-10-18T08:31:00.388Z,100302.55
2023-10-18T08:33:32.597Z,100293.61
2023-10-18T08:36:08.481Z,100291.59
2023-10-18T08:38:38.348Z,100287.15
2023-10-18T08:41:17.451Z,100281.02
2023-10-18T08:44:00.202Z,100276.98
2023-10-18T08:46:38.281Z,100275.48
2023-10-18T08:49:16.357Z,100273.91
2023-10-18T08:51:48.039Z,100268.54
2023-10-18T08:54:21.362Z,100268.05
2023-10-18T08:56:53.445Z,100266.19
2023-10-18T08:59:25.386Z,100262.75
2023-10-18T09:02:13.857Z,100256.19
2023-10-18T09:04:46.995Z,100256.48
2023-10-18T09:07:26.034Z,100256.73
2023-10-18T09:09:59.971Z,100251.20
2023-10-18T09:12:57.127Z,100245.54
2023-10-18T09:15:48.727Z,100240.73
2023-10-18T09:18:23.274Z,100234.52
2023-10-18T09:20:56.533Z,100226.27
2023-10-18T09:23:31.342Z,100224.98
2023-10-18T09:26:06.089Z,100222.00
2023-10-18T09:28:38.262Z,100220.73
2023-10-18T09:31:12.318Z,100214.91
2023-10-18T09:33:53.398Z,100213.69
2023-10-18T09:36:25.613Z,100202.55
2023-10-18T09:38:56.382Z,100202.13
2023-10-18T09:41:32.437Z,100203.15
2023-10-18T09:44:03.023Z,100202.98
2023-10-18T09:46:34.228Z,100198.92
2023-10-18T09:49:11.233Z,100187.41
2023-10-18T09:51:45.892Z,100183.63
2023-10-18T09:54:22.858Z,100178.32
2023-10-18T09:56:56.756Z,100174.64
2023-10-18T09:59:32.536Z,100178.29
2023-10-18T10:02:09.999Z,100170.95
2023-10-18T10:04:44.265Z,100161.06
2023-10-18T10:07:38.322Z,100157.02
2023-10-18T10:10:10.581Z,100145.38
2023-10-18T10:12:43.671Z,100142.80
2023-10-18T10:15:18.742Z,100138.80
2023-10-18T10:18:02.288Z,100134.98
2023-10-18T10:20:34.881Z,100125.52
2023-10-18T10:23:18.787Z,100124.55
2023-10-18T10:26:22.483Z,100121.19
2023-10-18T10:29:06.977Z,100112.86
2023-10-18T10:31:56.043Z,100109.38
2023-10-18T10:34:28.275Z,100106.25
2023-10-18T10:37:10.067Z,100103.43
2023-10-18T10:39:45.672Z,100098.23
2023-10-18T10:42:42.794Z,100094.50
2023-10-18T10:45:36.886Z,100088.61
2023-10-18T10:48:33.624Z,100077.88
2023-10-18T10:51:09.483Z,100075.80
2023-10-18T10:53:49.820Z,100070.42
2023-10-18T10:56:29.088Z,100064.08
2023-10-18T10:59:04.840Z,100061.97
2023-10-18T11:01:56.225Z,100058.73
2023-10-18T11:04:50.450Z,100051.98
2023-10-18T11:07:24.172Z,100036.48
2023-10-18T11:10:06.970Z,100039.11
2023-10-18T11:12:37.551Z,100031.19
2023-10-18T11:15:17.422Z,100025.02
2023-10-18T11:17:49.981Z,100023.69
2023-10-18T11:20:30.867Z,100024.07
2023-10-18T11:23:02.119Z,100020.07
2023-10-18T11:25:35.177Z,100018.73
2023-10-18T11:28:23.023Z,100007.35
2023-10-18T11:30:57.998Z,100001.62
2023-10-18T11:33:48.219Z,99992.87
2023-10-18T11:36:21.950Z,99990.30
2023-10-18T11:39:09.911Z,99981.73
2023-10-18T11:41:40.189Z,99970.15
2023-10-18T11:44:15.267Z,99961.70
2023-10-18T11:46:51.728Z,99952.06
2023-10-18T11:49:22.307Z,99942.10
2023-10-18T11:51:55.195Z,99937.99
2023-10-18T11:54:34.681Z,99929.04
2023-10-18T11:57:08.363Z,99917.41
2023-10-18T11:59:54.910Z,99916.42
2023-10-18T12:02:30.620Z,99912.63
2023-10-18T12:05:00.614Z,99900.28
2023-10-18T12:07:33.905Z,99896.63
2023-10-18T12:10:16.748Z,99893.83
2023-10-18T12:12:50.837Z,99883.60
2023-10-18T12:15:26.949Z,99880.40
2023-10-18T12:17:57.273Z,99886.55
2023-10-18T12:20:36.140Z,99880.20
2023-10-18T12:23:33.923Z,99875.64
2023-10-18T12:26:07.590Z,99866.61
2023-10-18T12:28:38.515Z,99858.77
2023-10-18T12:31:14.953Z,99849.59
2023-10-18T12:33:50.543Z,99849.39
2023-10-18T12:36:24.154Z,99841.60
2023-10-18T12:38:59.608Z,99835.55
2023-10-18T12:41:33.358Z,99825.66
2023-10-18T12:44:04.465Z,99823.09
2023-10-18T12:46:36.578Z,99814.25
2023-10-18T12:49:06.842Z,99809.62
2023-10-18T12:51:41.775Z,99805.09
2023-10-18T12:54:20.444Z,99806.35
2023-10-18T12:57:09.739Z,99804.35
2023-10-18T13:00:03.473Z,99800.13
2023-10-18T13:02:52.001Z,99782.64
2023-10-18T13:05:23.039Z,99772.49
2023-10-18T13:07:55.694Z,99761.66
2023-10-18T13:10:32.661Z,99764.70
2023-10-18T13:13:17.923Z,99754.69
2023-10-18T13:15:50.016Z,99748.75
2023-10-18T13:18:19.830Z,99741.33
2023-10-18T13:20:50.396Z,99736.50
2023-10-18T13:23:28.546Z,99731.78
2023-10-18T13:25:58.827Z,99726.02
2023-10-18T13:28:35.139Z,99716.35
2023-10-18T13:31:08.939Z,99710.84
2023-10-18T13:33:40.101Z,99698.31
2023-10-18T13:36:15.284Z,99691.85
2023-10-18T13:38:45.270Z,99686.91
2023-10-18T13:41:17.412Z,99685.05
2023-10-18T13:43:49.750Z,99683.47
2023-10-18T13:46:24.815Z,99680.61
2023-10-18T13:48:54.519Z,99677.36
2023-10-18T13:51:26.957Z,99675.81
2023-10-18T13:53:57.770Z,99664.69
2023-10-18T13:56:28.136Z,99663.25
2023-10-18T13:59:00.205Z,99661.27
2023-10-18T14:01:30.113Z,99654.19
2023-10-18T14:04:03.143Z,99654.47
2023-10-18T14:06:51.402Z,99659.02
2023-10-18T14:09:25.630Z,99648.85
2023-10-18T14:11:55.580Z,99651.23
2023-10-18T14:14:25.654Z,99646.13
2023-10-18T14:16:55.640Z,99631.40
2023-10-18T14:19:26.237Z,99629.13
2023-10-18T14:21:56.159Z,99625.80
2023-10-18T14:24:30.175Z,99622.32
2023-10-18T14:27:04.955Z,99616.38
2023-10-18T14:29:35.038Z,99614.30
2023-10-18T14:32:10.213Z,99603.27
2023-10-18T14:34:40.444Z,99607.64
2023-10-18T14:37:10.543Z,99610.92
2023-10-18T14:39:40.418Z,99606.27
2023-10-18T14:42:10.446Z,99608.30
2023-10-18T14:44:42.821Z,99602.60
2023-10-18T14:47:15.107Z,99596.94
2023-10-18T14:49:48.287Z,99592.28
2023-10-18T14:52:21.116Z,99587.71
2023-10-18T14:54:54.212Z,99581.41
2023-10-18T14:57:25.091Z,99579.88
2023-10-18T14:59:55.879Z,99575.66
2023-10-18T15:02:26.141Z,99575.61
2023-10-18T15:04:56.429Z,99562.23
2023-10-18T15:07:29.793Z,99574.33
2023-10-18T15:10:03.422Z,99571.86
2023-10-18T15:12:33.294Z,99571.25
2023-10-18T15:15:03.285Z,99575.06
2023-10-18T15:17:33.498Z,99573.50
2023-10-18T15:20:03.966Z,99567.05
2023-10-18T15:22:35.074Z,99568.77
2023-10-18T15:25:06.560Z,99568.77
2023-10-18T15:27:36.587Z,99560.08
2023-10-18T15:30:11.137Z,99562.99
2023-10-18T15:32:40.986Z,99556.30
2023-10-18T15:35:14.458Z,99547.79
2023-10-18T15:37:44.773Z,99543.90
2023-10-18T15:40:16.357Z,99544.31
2023-10-18T15:42:49.383Z,99534.86
2023-10-18T15:45:19.143Z,99531.52
2023-10-18T15:47:49.123Z,99532.17
2023-10-18T15:50:20.404Z,99529.31
2023-10-18T15:52:50.217Z,99523.73
2023-10-18T15:55:20.298Z,99520.38
2023-10-18T15:57:54.195Z,99512.37
2023-10-18T16:00:29.245Z,99509.61
2023-10-18T16:03:00.150Z,99507.52
2023-10-18T16:05:32.258Z,99508.61
2023-10-18T16:08:02.206Z,99500.04
2023-10-18T16:10:34.199Z,99504.56
2023-10-18T16:13:04.151Z,99492.08
2023-10-18T16:15:35.975Z,99490.19
2023-10-18T16:18:08.928Z,99485.42
2023-10-18T16:20:39.013Z,99484.45
2023-10-18T16:23:11.338Z,99477.98
2023-10-18T16:25:44.481Z,99476.63
2023-10-18T16:28:14.825Z,99476.11
2023-10-18T16:30:45.108Z,99475.09
2023-10-18T16:33:17.125Z,99467.96
2023-10-18T16:35:46.967Z,99472.75
2023-10-18T16:38:22.649Z,99463.80
2023-10-18T16:41:06.730Z,99452.55
2023-10-18T16:43:40.276Z,99460.08
2023-10-18T16:46:12.576Z,99460.70
2023-10-18T16:48:44.741Z,99461.88
2023-10-18T16:51:17.549Z,99458.08
2023-10-18T16:53:48.104Z,99458.48
2023-10-18T16:56:19.665Z,99456.32
2023-10-18T16:58:49.935Z,99454.00
2023-10-18T17:01:22.150Z,99448.98
2023-10-18T17:03:53.055Z,99444.65
2023-10-18T17:06:23.183Z,99442.48
2023-10-18T17:08:58.806Z,99443.28
2023-10-18T17:11:34.242Z,99432.83
2023-10-18T17:14:04.683Z,99431.88
2023-10-18T17:16:35.118Z,99434.95
2023-10-18T17:19:05.351Z,99431.27
2023-10-18T17:21:36.762Z,99427.88
2023-10-18T17:24:10.373Z,99423.57
2023-10-18T17:26:40.285Z,99424.77
2023-10-18T17:29:10.880Z,99416.84
2023-10-18T17:31:40.879Z,99413.74
2023-10-18T17:34:12.788Z,99415.77
2023-10-18T17:36:42.874Z,99411.50
2023-10-18T17:39:16.625Z,99408.46
2023-10-18T17:41:46.819Z,99404.26
2023-10-18T17:44:17.707Z,99394.00
2023-10-18T17:46:49.332Z,99392.30
2023-10-18T17:49:19.576Z,99380.00
2023-10-18T17:51:52.722Z,99376.39
2023-10-18T17:54:26.830Z,99371.16
2023-10-18T17:57:00.160Z,99376.80
2023-10-18T17:59:30.267Z,99376.30
2023-10-18T18:02:02.515Z,99363.49
2023-10-18T18:04:34.937Z,99365.46
2023-10-18T18:07:05.984Z,99362.89
2023-10-18T18:09:35.773Z,99355.04
2023-10-18T18:12:08.634Z,99351.92
2023-10-18T18:14:42.748Z,99338.13
2023-10-18T18:17:14.770Z,99336.96
2023-10-18T18:19:44.980Z,99329.27
2023-10-18T18:22:14.949Z,99331.95
2023-10-18T18:24:44.697Z,99325.36
2023-10-18T18:27:14.517Z,99317.90
2023-10-18T18:29:49.316Z,99311.95
2023-10-18T18:32:22.468Z,99311.59
2023-10-18T18:34:53.553Z,99306.41
2023-10-18T18:37:24.039Z,99298.64
2023-10-18T18:39:53.952Z,99296.42
2023-10-18T18:42:28.878Z,99288.92
2023-10-18T18:45:01.303Z,99280.32
2023-10-18T18:47:34.806Z,99272.05
2023-10-18T18:50:09.728Z,99269.98
2023-10-18T18:52:41.089Z,99264.05
2023-10-18T18:55:12.322Z,99257.45
2023-10-18T18:57:43.720Z,99249.28
2023-10-18T19:00:17.101Z,99235.78
2023-10-18T19:02:54.529Z,99227.10
2023-10-18T19:05:25.544Z,99220.27
2023-10-18T19:07:57.989Z,99215.46
2023-10-18T19:10:32.764Z,99213.41
2023-10-18T19:13:03.272Z,99213.60
2023-10-18T19:15:34.128Z,99217.27
2023-10-18T19:18:04.790Z,99213.95
2023-10-18T19:20:34.684Z,99209.04
2023-10-18T19:23:04.673Z,99205.93
2023-10-18T19:25:34.588Z,99205.15
2023-10-18T19:28:08.658Z,99196.61
2023-10-18T19:30:42.425Z,99204.24
2023-10-18T19:33:14.662Z,99192.95
2023-10-18T19:35:47.473Z,99199.80
2023-10-18T19:38:17.393Z,99197.79
2023-10-18T19:40:47.383Z,99202.66
2023-10-18T19:43:17.196Z,99195.48
2023-10-18T19:45:49.740Z,99196.95
2023-10-18T19:48:19.632Z,99193.29
2023-10-18T19:50:49.649Z,99193.40
2023-10-18T19:53:19.473Z,99193.83
2023-10-18T19:55:51.652Z,99192.05
2023-10-18T19:58:24.157Z,99192.59
2023-10-18T20:00:56.874Z,99189.23
2023-10-18T20:03:29.258Z,99187.65
2023-10-18T20:06:03.157Z,99186.53
2023-10-18T20:08:33.080Z,99171.68
2023-10-18T20:11:10.308Z,99176.67
2023-10-18T20:13:41.296Z,99164.95
2023-10-18T20:16:15.920Z,99159.00
2023-10-18T20:18:45.770Z,99164.74
2023-10-18T20:21:17.804Z,99162.70
2023-10-18T20:23:47.610Z,99159.63
2023-10-18T20:26:29.071Z,99155.00
2023-10-18T20:28:59.916Z,99144.14
2023-10-18T20:31:35.313Z,99155.04
2023-10-18T20:34:05.206Z,99149.52
2023-10-18T20:36:35.546Z,99148.39
2023-10-18T20:39:05.434Z,99139.98
2023-10-18T20:41:35.335Z,99134.52
2023-10-18T20:44:19.240Z,99135.56
2023-10-18T20:46:50.070Z,99130.44
2023-10-18T20:49:25.964Z,99129.39
2023-10-18T20:51:59.307Z,99127.70
2023-10-18T20:54:34.319Z,99122.62
2023-10-18T20:57:12.741Z,99126.70
2023-10-18T20:59:44.464Z,99126.65
2023-10-18T21:02:20.123Z,99126.37
2023-10-18T21:04:50.461Z,99119.77
2023-10-18T21:07:26.588Z,99115.69
2023-10-18T21:09:58.684Z,99115.40
2023-10-18T21:12:29.114Z,99114.15
2023-10-18T21:14:58.876Z,99110.62
2023-10-18T21:17:28.810Z,99106.66
2023-10-18T21:19:58.686Z,99107.19
2023-10-18T21:22:28.691Z,99106.55
2023-10-18T21:25:01.306Z,99103.02
2023-10-18T21:27:34.302Z,99097.71
2023-10-18T21:30:11.954Z,99095.00
2023-10-18T21:32:43.871Z,99092.70
2023-10-18T21:35:16.876Z,99093.04
2023-10-18T21:37:49.554Z,99086.13
2023-10-18T21:40:21.572Z,99082.96
2023-10-18T21:42:51.916Z,99085.80
2023-10-18T21:45:21.817Z,99077.90
2023-10-18T21:47:53.305Z,99077.55
2023-10-18T21:50:25.755Z,99075.86
2023-10-18T21:52:57.862Z,99075.61
2023-10-18T21:55:30.199Z,99074.48
2023-10-18T21:58:00.176Z,99069.46
2023-10-18T22:00:32.002Z,99067.14
2023-10-18T22:03:02.685Z,99068.17
2023-10-18T22:05:36.980Z,99061.27
2023-10-18T22:08:12.083Z,99055.27
2023-10-18T22:10:46.203Z,99062.83
2023-10-18T22:13:24.000Z,99053.45
2023-10-18T22:16:05.022Z,99056.78
2023-10-18T22:18:39.001Z,99055.84
2023-10-18T22:21:09.376Z,99044.70
2023-10-18T22:23:47.034Z,99053.30
2023-10-18T22:26:21.896Z,99048.13
2023-10-18T22:28:54.751Z,99043.30
2023-10-18T22:31:27.707Z,99038.66
2023-10-18T22:33:57.829Z,99040.92
2023-10-18T22:36:28.406Z,99033.03
2023-10-18T22:39:01.985Z,99034.80
2023-10-18T22:41:37.600Z,99026.20
2023-10-18T22:44:11.769Z,99023.23
2023-10-18T22:46:42.148Z,99024.35
2023-10-18T22:49:23.028Z,99025.20
2023-10-18T22:52:14.877Z,99027.20
2023-10-18T22:54:47.093Z,99033.33
2023-10-18T22:57:26.372Z,99047.91
2023-10-18T22:59:57.160Z,99049.13
2023-10-18T23:02:29.180Z,99057.02
2023-10-18T23:05:02.299Z,99060.66
2023-10-18T23:07:33.708Z,99067.15
2023-10-18T23:10:10.005Z,99070.42
2023-10-18T23:12:44.025Z,99072.78
2023-10-18T23:15:20.830Z,99071.25
2023-10-18T23:17:56.406Z,99068.27
2023-10-18T23:20:35.677Z,99060.15
2023-10-18T23:23:08.644Z,99073.38
2023-10-18T23:25:59.507Z,99074.52
2023-10-18T23:28:34.270Z,99075.77
2023-10-18T23:31:09.031Z,99084.40
2023-10-18T23:33:50.655Z,99083.08
2023-10-18T23:36:26.295Z,99081.36
2023-10-18T23:39:05.746Z,99077.18
2023-10-18T23:41:42.858Z,99073.40
2023-10-18T23:44:18.154Z,99075.27
2023-10-18T23:46:48.226Z,99077.50
2023-10-18T23:49:27.893Z,99076.52
2023-10-18T23:52:18.702Z,99079.52
2023-10-18T23:54:52.952Z,99081.36
2023-10-18T23:57:33.540Z,99080.80
